createdAt,value
2024-03-07T00:02:24.940Z,13.47
2024-03-07T00:04:51.449Z,14.00
2024-03-07T00:07:17.893Z,14.55
2024-03-07T00:09:44.791Z,15.85
2024-03-07T00:12:11.389Z,14.93
2024-03-07T00:14:37.880Z,14.93
2024-03-07T00:17:04.546Z,14.77
2024-03-07T00:19:31.132Z,14.00
2024-03-07T00:21:58.451Z,14.25
2024-03-07T00:24:25.476Z,14.68
2024-03-07T00:26:52.589Z,13.70
2024-03-07T00:29:20.276Z,13.57
2024-03-07T00:31:50.136Z,14.23
2024-03-07T00:34:25.095Z,14.88
2024-03-07T00:36:53.188Z,14.32
2024-03-07T00:39:21.049Z,13.37
2024-03-07T00:41:47.805Z,15.93
2024-03-07T00:44:14.383Z,15.57
2024-03-07T00:46:40.812Z,15.07
2024-03-07T00:49:07.378Z,14.65
2024-03-07T00:51:34.034Z,14.63
2024-03-07T00:54:00.592Z,14.10
2024-03-07T00:56:27.177Z,14.63
2024-03-07T00:58:53.737Z,13.18
2024-03-07T01:01:20.725Z,14.30
2024-03-07T01:03:47.482Z,13.40
2024-03-07T01:06:14.025Z,13.52
2024-03-07T01:08:40.860Z,13.85
2024-03-07T01:11:10.754Z,14.40
2024-03-07T01:13:37.875Z,13.23
2024-03-07T01:16:04.672Z,14.10
2024-03-07T01:18:32.802Z,12.85
2024-03-07T01:20:59.296Z,13.23
2024-03-07T01:23:25.907Z,13.52
2024-03-07T01:25:52.869Z,13.27
2024-03-07T01:28:19.339Z,13.50
2024-03-07T01:30:45.769Z,14.15
2024-03-07T01:33:12.283Z,14.95
2024-03-07T01:35:38.852Z,13.82
2024-03-07T01:38:05.351Z,13.70
2024-03-07T01:40:31.765Z,14.73
2024-03-07T01:42:58.212Z,14.23
2024-03-07T01:45:24.640Z,13.40
2024-03-07T01:47:51.323Z,13.63
2024-03-07T01:50:18.906Z,12.07
2024-03-07T01:52:46.246Z,12.67
2024-03-07T01:55:14.329Z,14.80
2024-03-07T01:57:41.074Z,12.77
2024-03-07T02:00:08.743Z,14.07
2024-03-07T02:02:35.536Z,13.68
2024-03-07T02:05:02.777Z,14.40
2024-03-07T02:07:29.630Z,13.43
2024-03-07T02:10:04.809Z,13.55
2024-03-07T02:12:31.940Z,14.13
2024-03-07T02:14:58.943Z,15.35
2024-03-07T02:17:26.780Z,14.63
2024-03-07T02:19:53.884Z,14.63
2024-03-07T02:22:20.808Z,15.77
2024-03-07T02:24:47.735Z,14.43
2024-03-07T02:27:15.316Z,13.75
2024-03-07T02:29:42.588Z,14.30
2024-03-07T02:32:09.060Z,15.45
2024-03-07T02:34:35.615Z,14.23
2024-03-07T02:37:02.081Z,15.05
2024-03-07T02:39:28.568Z,15.63
2024-03-07T02:41:55.216Z,17.00
2024-03-07T02:44:21.696Z,16.15
2024-03-07T02:46:48.339Z,15.63
2024-03-07T02:49:15.781Z,15.85
2024-03-07T02:51:44.909Z,16.00
2024-03-07T02:54:11.408Z,14.90
2024-03-07T02:56:37.912Z,15.05
2024-03-07T02:59:05.121Z,17.27
2024-03-07T03:01:31.978Z,16.60
2024-03-07T03:03:58.429Z,15.35
2024-03-07T03:06:25.086Z,14.37
2024-03-07T03:08:51.763Z,15.38
2024-03-07T03:11:18.417Z,15.73
2024-03-07T03:13:45.035Z,15.32
2024-03-07T03:16:11.588Z,15.10
2024-03-07T03:18:38.097Z,15.40
2024-03-07T03:21:04.757Z,15.68
2024-03-07T03:23:31.532Z,16.33
2024-03-07T03:25:58.352Z,15.07
2024-03-07T03:28:24.883Z,16.38
2024-03-07T03:30:54.275Z,15.73
2024-03-07T03:33:22.097Z,17.17
2024-03-07T03:35:48.818Z,16.05
2024-03-07T03:38:15.537Z,15.27
2024-03-07T03:40:42.073Z,15.75
2024-03-07T03:43:08.732Z,15.73
2024-03-07T03:45:35.516Z,16.05
2024-03-07T03:48:02.489Z,15.73
2024-03-07T03:50:29.881Z,17.27
2024-03-07T03:52:56.644Z,15.48
2024-03-07T03:55:23.865Z,16.43
2024-03-07T03:57:50.945Z,15.10
2024-03-07T04:00:18.432Z,14.75
2024-03-07T04:02:49.982Z,14.38
2024-03-07T04:05:19.066Z,14.88
2024-03-07T04:07:46.136Z,14.90
2024-03-07T04:10:13.700Z,15.88
2024-03-07T04:12:41.817Z,15.23
2024-03-07T04:15:10.184Z,15.40
2024-03-07T04:17:37.637Z,15.60
2024-03-07T04:20:08.976Z,15.47
2024-03-07T04:22:36.226Z,14.93
2024-03-07T04:25:03.624Z,14.85
2024-03-07T04:27:30.332Z,16.25
2024-03-07T04:29:57.010Z,15.40
2024-03-07T04:32:24.242Z,15.47
2024-03-07T04:34:50.726Z,15.77
2024-03-07T04:37:17.688Z,13.85
2024-03-07T04:39:44.180Z,14.55
2024-03-07T04:42:10.976Z,14.63
2024-03-07T04:44:38.343Z,14.70
2024-03-07T04:47:05.526Z,15.27
2024-03-07T04:49:33.929Z,12.88
2024-03-07T04:52:02.972Z,12.45
2024-03-07T04:54:30.711Z,14.60
2024-03-07T04:56:57.199Z,14.33
2024-03-07T04:59:24.439Z,14.15
2024-03-07T05:01:51.634Z,12.85
2024-03-07T05:04:19.462Z,12.93
2024-03-07T05:06:49.024Z,14.68
2024-03-07T05:09:24.515Z,13.67
2024-03-07T05:11:54.212Z,14.10
2024-03-07T05:14:26.815Z,15.23
2024-03-07T05:17:22.653Z,13.23
2024-03-07T05:19:50.942Z,13.95
2024-03-07T05:22:19.112Z,12.57
2024-03-07T05:24:46.848Z,13.07
2024-03-07T05:27:13.754Z,13.68
2024-03-07T05:29:40.529Z,13.45
2024-03-07T05:32:24.139Z,13.75
2024-03-07T05:34:50.986Z,13.17
2024-03-07T05:37:17.441Z,12.70
2024-03-07T05:39:43.949Z,12.55
2024-03-07T05:42:14.993Z,13.40
2024-03-07T05:44:45.344Z,12.75
2024-03-07T05:47:14.476Z,12.70
2024-03-07T05:49:41.508Z,12.30
2024-03-07T05:52:08.162Z,12.30
2024-03-07T05:54:37.835Z,12.68
2024-03-07T05:57:06.882Z,11.60
2024-03-07T05:59:33.610Z,14.77
2024-03-07T06:02:00.738Z,13.75
2024-03-07T06:04:27.176Z,14.57
2024-03-07T06:06:53.887Z,13.77
2024-03-07T06:09:23.332Z,14.52
2024-03-07T06:11:50.683Z,13.73
2024-03-07T06:14:18.309Z,15.23
2024-03-07T06:16:45.006Z,16.60
2024-03-07T06:19:12.530Z,15.90
2024-03-07T06:21:42.184Z,16.17
2024-03-07T06:24:11.557Z,15.63
2024-03-07T06:27:02.345Z,18.05
2024-03-07T06:29:29.061Z,17.52
2024-03-07T06:31:56.134Z,17.00
2024-03-07T06:34:22.830Z,19.00
2024-03-07T06:36:49.326Z,18.73
2024-03-07T06:39:16.434Z,17.95
2024-03-07T06:41:43.454Z,16.10
2024-03-07T06:44:11.494Z,17.58
2024-03-07T06:46:38.156Z,16.17
2024-03-07T06:49:06.819Z,17.00
2024-03-07T06:51:34.225Z,17.25
2024-03-07T06:54:00.956Z,19.45
2024-03-07T06:56:27.608Z,18.33
2024-03-07T06:58:54.299Z,18.02
2024-03-07T07:01:21.163Z,16.63
2024-03-07T07:03:49.480Z,17.90
2024-03-07T07:06:17.039Z,19.00
2024-03-07T07:08:46.218Z,16.95
2024-03-07T07:11:13.472Z,18.02
2024-03-07T07:13:40.339Z,16.73
2024-03-07T07:16:07.325Z,18.00
2024-03-07T07:18:35.118Z,17.83
2024-03-07T07:21:04.300Z,17.92
2024-03-07T07:23:31.189Z,17.80
2024-03-07T07:25:57.650Z,17.53
2024-03-07T07:28:24.090Z,17.27
2024-03-07T07:30:50.552Z,16.50
2024-03-07T07:33:17.249Z,16.50
2024-03-07T07:35:44.356Z,16.35
2024-03-07T07:38:12.484Z,16.77
2024-03-07T07:40:39.849Z,17.67
2024-03-07T07:43:07.235Z,16.75
2024-03-07T07:45:36.800Z,17.42
2024-03-07T07:48:03.886Z,17.15
2024-03-07T07:50:30.612Z,16.70
2024-03-07T07:52:58.634Z,17.05
2024-03-07T07:55:29.274Z,17.80
2024-03-07T07:57:57.532Z,16.27
2024-03-07T08:00:26.944Z,17.80
2024-03-07T08:02:59.000Z,16.33
2024-03-07T08:05:28.557Z,15.32
2024-03-07T08:07:59.659Z,16.17
2024-03-07T08:10:30.126Z,14.90
2024-03-07T08:13:02.588Z,15.40
2024-03-07T08:15:31.079Z,15.70
2024-03-07T08:17:59.160Z,15.73
2024-03-07T08:20:27.690Z,14.23
2024-03-07T08:22:56.325Z,13.20
2024-03-07T08:25:28.091Z,14.48
2024-03-07T08:27:56.231Z,13.70
2024-03-07T08:30:24.082Z,14.80
2024-03-07T08:32:53.535Z,14.48
2024-03-07T08:35:20.753Z,13.52
2024-03-07T08:37:55.049Z,12.90
2024-03-07T08:40:27.795Z,13.67
2024-03-07T08:42:56.358Z,12.88
2024-03-07T08:45:23.490Z,13.40
2024-03-07T08:47:59.031Z,13.02
2024-03-07T08:50:27.434Z,12.13
2024-03-07T08:52:54.335Z,11.87
2024-03-07T08:55:25.221Z,12.65
2024-03-07T08:57:52.266Z,12.25
2024-03-07T09:00:27.401Z,11.27
2024-03-07T09:02:59.760Z,11.50
2024-03-07T09:05:28.257Z,10.93
2024-03-07T09:07:55.801Z,10.32
2024-03-07T09:10:26.847Z,11.10
2024-03-07T09:12:55.731Z,10.98
2024-03-07T09:15:23.696Z,10.98
2024-03-07T09:17:51.087Z,10.10
2024-03-07T09:20:17.813Z,11.45
2024-03-07T09:22:45.338Z,10.85
2024-03-07T09:25:13.729Z,9.98
2024-03-07T09:27:41.485Z,9.90
2024-03-07T09:30:16.193Z,8.93
2024-03-07T09:32:43.212Z,10.23
2024-03-07T09:35:13.446Z,9.48
2024-03-07T09:37:44.585Z,9.77
2024-03-07T09:40:13.140Z,9.82
2024-03-07T09:42:49.066Z,9.30
2024-03-07T09:45:18.489Z,10.02
2024-03-07T09:47:48.822Z,9.50
2024-03-07T09:50:20.225Z,9.88
2024-03-07T09:52:50.391Z,9.73
2024-03-07T09:55:18.725Z,9.83
2024-03-07T09:57:47.737Z,10.20
2024-03-07T10:00:23.624Z,9.88
2024-03-07T10:03:11.130Z,9.98
2024-03-07T10:05:40.086Z,9.82
2024-03-07T10:08:08.551Z,9.77
2024-03-07T10:10:35.382Z,9.13
2024-03-07T10:13:02.212Z,9.43
2024-03-07T10:15:34.467Z,10.40
2024-03-07T10:18:04.270Z,8.95
2024-03-07T10:20:31.443Z,9.83
2024-03-07T10:22:58.434Z,8.88
2024-03-07T10:25:27.494Z,9.40
2024-03-07T10:27:55.630Z,9.07
2024-03-07T10:30:26.493Z,9.35
2024-03-07T10:32:56.626Z,10.10
2024-03-07T10:35:27.087Z,9.27
2024-03-07T10:37:57.381Z,9.32
2024-03-07T10:40:26.478Z,10.25
2024-03-07T10:42:57.770Z,9.68
2024-03-07T10:45:24.889Z,9.50
2024-03-07T10:47:56.990Z,9.10
2024-03-07T10:50:54.234Z,8.85
2024-03-07T10:53:47.083Z,8.95
2024-03-07T10:56:32.417Z,9.13
2024-03-07T10:59:08.445Z,8.43
2024-03-07T11:01:40.046Z,7.53
2024-03-07T11:04:08.294Z,8.95
2024-03-07T11:06:35.330Z,8.23
2024-03-07T11:09:11.210Z,9.13
2024-03-07T11:11:41.936Z,9.07
2024-03-07T11:14:12.122Z,9.00
2024-03-07T11:16:41.853Z,8.88
2024-03-07T11:19:40.970Z,9.45
2024-03-07T11:22:16.874Z,9.07
2024-03-07T11:24:46.881Z,8.97
2024-03-07T11:27:16.450Z,8.65
2024-03-07T11:29:54.437Z,8.43
2024-03-07T11:32:25.285Z,8.75
2024-03-07T11:34:54.921Z,8.85
2024-03-07T11:37:42.283Z,8.60
2024-03-07T11:40:09.795Z,8.85
2024-03-07T11:42:37.067Z,9.10
2024-03-07T11:45:07.660Z,9.68
2024-03-07T11:47:42.475Z,9.23
2024-03-07T11:50:15.254Z,8.87
2024-03-07T11:52:45.364Z,8.48
2024-03-07T11:55:12.398Z,7.60
2024-03-07T11:57:39.775Z,8.35
2024-03-07T12:00:12.760Z,8.82
2024-03-07T12:02:40.612Z,8.67
2024-03-07T12:05:07.834Z,9.15
2024-03-07T12:07:39.254Z,9.23
2024-03-07T12:10:06.305Z,8.52
2024-03-07T12:12:34.454Z,9.45
2024-03-07T12:15:03.812Z,8.20
2024-03-07T12:17:32.832Z,8.80
2024-03-07T12:20:03.666Z,8.43
2024-03-07T12:22:31.605Z,9.02
2024-03-07T12:25:03.589Z,8.48
2024-03-07T12:27:30.773Z,8.43
2024-03-07T12:29:58.182Z,8.63
2024-03-07T12:32:26.916Z,7.82
2024-03-07T12:34:54.139Z,8.77
2024-03-07T12:37:28.012Z,8.60
2024-03-07T12:40:02.334Z,8.00
2024-03-07T12:42:32.060Z,9.07
2024-03-07T12:45:00.569Z,8.45
2024-03-07T12:47:27.455Z,7.90
2024-03-07T12:49:53.927Z,8.20
2024-03-07T12:52:20.423Z,7.93
2024-03-07T12:54:49.201Z,9.07
2024-03-07T12:57:15.840Z,7.72
2024-03-07T12:59:44.942Z,7.85
2024-03-07T13:02:13.464Z,8.85
2024-03-07T13:04:43.266Z,9.47
2024-03-07T13:07:11.054Z,7.18
2024-03-07T13:09:39.328Z,8.88
2024-03-07T13:12:10.537Z,8.48
2024-03-07T13:14:37.465Z,9.07
2024-03-07T13:17:05.723Z,8.17
2024-03-07T13:19:32.452Z,8.27
2024-03-07T13:21:59.573Z,8.07
2024-03-07T13:24:28.735Z,7.53
2024-03-07T13:26:55.637Z,8.10
2024-03-07T13:29:31.009Z,7.30
2024-03-07T13:31:57.598Z,7.40
2024-03-07T13:34:27.001Z,7.20
2024-03-07T13:36:53.700Z,8.00
2024-03-07T13:39:20.352Z,7.95
2024-03-07T13:41:49.431Z,7.83
2024-03-07T13:44:16.506Z,8.65
2024-03-07T13:46:42.970Z,8.15
2024-03-07T13:49:14.169Z,8.35
2024-03-07T13:51:51.771Z,7.78
2024-03-07T13:54:35.541Z,8.47
2024-03-07T13:57:21.344Z,8.90
2024-03-07T14:00:15.067Z,8.27
2024-03-07T14:03:19.861Z,8.48
2024-03-07T14:05:46.373Z,8.73
2024-03-07T14:08:18.808Z,8.90
2024-03-07T14:11:16.567Z,9.02
2024-03-07T14:14:16.157Z,8.60
2024-03-07T14:16:46.703Z,8.63
2024-03-07T14:19:47.421Z,7.82
2024-03-07T14:22:28.692Z,7.80
2024-03-07T14:25:10.716Z,8.30
2024-03-07T14:27:51.685Z,9.32
2024-03-07T14:30:36.296Z,7.35
2024-03-07T14:33:04.108Z,7.90
2024-03-07T14:36:02.214Z,7.20
2024-03-07T14:38:45.172Z,7.32
2024-03-07T14:41:13.697Z,7.93
2024-03-07T14:43:42.157Z,7.95
2024-03-07T14:46:13.663Z,7.97
2024-03-07T14:48:41.621Z,8.40
2024-03-07T14:51:10.716Z,8.70
2024-03-07T14:53:37.398Z,8.27
2024-03-07T14:56:06.164Z,8.70
2024-03-07T14:58:32.681Z,7.97
2024-03-07T15:00:59.216Z,8.03
2024-03-07T15:03:30.242Z,6.90
2024-03-07T15:05:57.422Z,7.65
2024-03-07T15:08:25.423Z,7.68
2024-03-07T15:11:21.804Z,7.22
2024-03-07T15:13:48.956Z,7.63
2024-03-07T15:16:25.794Z,8.05
2024-03-07T15:18:59.461Z,8.40
2024-03-07T15:21:26.176Z,6.93
2024-03-07T15:23:54.237Z,8.07
2024-03-07T15:26:24.644Z,7.80
2024-03-07T15:28:53.163Z,8.70
2024-03-07T15:31:28.917Z,9.18
2024-03-07T15:33:55.814Z,8.40
2024-03-07T15:36:23.275Z,7.25
2024-03-07T15:38:50.541Z,8.77
2024-03-07T15:41:17.142Z,8.57
2024-03-07T15:43:46.737Z,8.38
2024-03-07T15:46:14.151Z,7.63
2024-03-07T15:48:42.257Z,8.48
2024-03-07T15:51:13.021Z,9.00
2024-03-07T15:53:41.990Z,7.72
2024-03-07T15:56:08.941Z,7.88
2024-03-07T15:58:35.571Z,8.10
2024-03-07T16:01:03.476Z,8.02
2024-03-07T16:03:29.975Z,9.50
2024-03-07T16:05:57.875Z,8.77
2024-03-07T16:08:24.773Z,8.63
2024-03-07T16:10:52.365Z,8.40
2024-03-07T16:13:19.293Z,8.45
2024-03-07T16:15:47.161Z,8.37
2024-03-07T16:18:15.559Z,8.85
2024-03-07T16:20:45.349Z,8.95
2024-03-07T16:23:12.935Z,8.20
2024-03-07T16:25:39.559Z,8.40
2024-03-07T16:28:12.505Z,9.17
2024-03-07T16:30:45.436Z,9.43
2024-03-07T16:33:12.909Z,9.43
2024-03-07T16:35:39.711Z,9.25
2024-03-07T16:38:06.294Z,8.68
2024-03-07T16:40:32.822Z,8.70
2024-03-07T16:43:01.030Z,8.82
2024-03-07T16:45:31.998Z,8.90
2024-03-07T16:48:01.380Z,9.48
2024-03-07T16:50:31.234Z,9.10
2024-03-07T16:53:06.636Z,9.27
2024-03-07T16:55:34.758Z,9.93
2024-03-07T16:58:12.621Z,9.43
2024-03-07T17:00:44.441Z,9.20
2024-03-07T17:03:13.332Z,9.38
2024-03-07T17:05:42.523Z,8.63
2024-03-07T17:08:14.059Z,9.20
2024-03-07T17:10:41.689Z,9.57
2024-03-07T17:13:13.901Z,9.77
2024-03-07T17:15:43.101Z,8.93
2024-03-07T17:18:13.508Z,9.53
2024-03-07T17:20:41.881Z,9.48
2024-03-07T17:23:08.991Z,9.90
2024-03-07T17:25:36.916Z,9.48
2024-03-07T17:28:03.854Z,8.70
2024-03-07T17:30:30.441Z,9.97
2024-03-07T17:33:00.659Z,9.52
2024-03-07T17:35:30.088Z,9.63
2024-03-07T17:37:57.829Z,9.88
2024-03-07T17:40:27.868Z,9.05
2024-03-07T17:42:55.494Z,10.53
2024-03-07T17:45:35.134Z,9.30
2024-03-07T17:48:03.127Z,9.82
2024-03-07T17:50:31.848Z,9.90
2024-03-07T17:53:04.539Z,8.63
2024-03-07T17:55:34.396Z,10.47
2024-03-07T17:58:04.708Z,9.68
2024-03-07T18:00:32.986Z,9.70
2024-03-07T18:03:06.179Z,9.50
2024-03-07T18:05:38.725Z,11.27
2024-03-07T18:08:34.057Z,10.37
2024-03-07T18:11:06.988Z,9.63
2024-03-07T18:13:34.316Z,9.27
2024-03-07T18:16:00.921Z,9.65
2024-03-07T18:18:28.228Z,9.05
2024-03-07T18:20:55.145Z,8.63
2024-03-07T18:23:22.485Z,9.23
2024-03-07T18:25:50.902Z,9.43
2024-03-07T18:28:21.024Z,9.65
2024-03-07T18:30:47.724Z,9.65
2024-03-07T18:33:14.614Z,10.03
2024-03-07T18:35:43.946Z,10.40
2024-03-07T18:38:10.650Z,10.48
2024-03-07T18:40:37.174Z,10.38
2024-03-07T18:43:12.616Z,10.35
2024-03-07T18:45:45.317Z,9.63
2024-03-07T18:48:14.107Z,11.25
2024-03-07T18:50:48.978Z,10.23
2024-03-07T18:53:19.742Z,11.30
2024-03-07T18:55:48.847Z,10.38
2024-03-07T18:58:17.278Z,10.40
2024-03-07T19:00:49.482Z,10.45
2024-03-07T19:03:16.935Z,11.20
2024-03-07T19:05:50.029Z,10.98
2024-03-07T19:08:17.172Z,11.35
2024-03-07T19:10:45.280Z,11.03
2024-03-07T19:13:14.162Z,10.00
2024-03-07T19:15:41.967Z,10.27
2024-03-07T19:18:11.360Z,10.75
2024-03-07T19:20:40.792Z,10.73
2024-03-07T19:23:10.103Z,11.00
2024-03-07T19:25:37.058Z,9.98
2024-03-07T19:28:08.042Z,10.35
2024-03-07T19:30:37.152Z,11.30
2024-03-07T19:33:07.476Z,11.05
2024-03-07T19:35:36.951Z,10.23
2024-03-07T19:38:07.461Z,10.27
2024-03-07T19:40:33.923Z,10.32
2024-03-07T19:43:02.750Z,11.25
2024-03-07T19:45:29.195Z,10.63
2024-03-07T19:47:56.124Z,9.80
2024-03-07T19:50:22.706Z,9.85
2024-03-07T19:52:49.248Z,10.20
2024-03-07T19:55:20.119Z,10.07
2024-03-07T19:57:49.459Z,10.32
2024-03-07T20:00:17.392Z,11.10
2024-03-07T20:02:45.061Z,10.30
2024-03-07T20:05:17.258Z,10.98
2024-03-07T20:07:45.552Z,10.45
2024-03-07T20:10:12.119Z,10.82
2024-03-07T20:12:43.045Z,9.60
2024-03-07T20:15:12.979Z,10.20
2024-03-07T20:17:44.628Z,10.55
2024-03-07T20:20:15.231Z,10.50
2024-03-07T20:22:48.976Z,10.13
2024-03-07T20:25:16.403Z,10.03
2024-03-07T20:27:49.306Z,9.88
2024-03-07T20:30:16.671Z,10.77
2024-03-07T20:32:43.777Z,8.75
2024-03-07T20:35:11.839Z,11.10
2024-03-07T20:37:42.097Z,9.13
2024-03-07T20:40:10.678Z,10.13
2024-03-07T20:42:39.010Z,9.63
2024-03-07T20:45:10.639Z,9.57
2024-03-07T20:47:38.781Z,10.02
2024-03-07T20:50:07.512Z,9.67
2024-03-07T20:52:34.127Z,10.48
2024-03-07T20:55:06.491Z,10.93
2024-03-07T20:57:33.775Z,10.55
2024-03-07T21:00:04.698Z,9.65
2024-03-07T21:02:33.616Z,10.93
2024-03-07T21:05:00.910Z,10.43
2024-03-07T21:07:27.400Z,11.15
2024-03-07T21:09:53.906Z,10.55
2024-03-07T21:12:20.591Z,9.45
2024-03-07T21:14:47.149Z,10.27
2024-03-07T21:17:15.077Z,10.10
2024-03-07T21:19:41.529Z,9.93
2024-03-07T21:22:08.012Z,10.93
2024-03-07T21:24:34.564Z,11.02
2024-03-07T21:27:03.119Z,10.30
2024-03-07T21:29:30.694Z,10.95
2024-03-07T21:31:58.058Z,10.98
2024-03-07T21:34:24.653Z,10.73
2024-03-07T21:36:51.179Z,11.63
2024-03-07T21:39:17.651Z,11.17
2024-03-07T21:41:44.160Z,11.15
2024-03-07T21:44:10.622Z,11.38
2024-03-07T21:46:41.290Z,12.32
2024-03-07T21:49:08.594Z,11.32
2024-03-07T21:51:36.668Z,10.47
2024-03-07T21:54:03.395Z,10.85
2024-03-07T21:56:31.072Z,12.55
2024-03-07T21:59:00.668Z,11.00
2024-03-07T22:01:38.848Z,11.95
2024-03-07T22:04:06.378Z,12.23
2024-03-07T22:06:33.795Z,12.15
2024-03-07T22:09:01.646Z,11.73
2024-03-07T22:11:28.428Z,11.48
2024-03-07T22:13:55.057Z,11.90
2024-03-07T22:16:21.612Z,11.50
2024-03-07T22:18:48.293Z,11.48
2024-03-07T22:21:15.025Z,10.13
2024-03-07T22:23:41.916Z,11.90
2024-03-07T22:26:13.168Z,10.60
2024-03-07T22:28:39.841Z,11.93
2024-03-07T22:31:10.556Z,12.10
2024-03-07T22:33:38.226Z,12.65
2024-03-07T22:36:11.482Z,11.00
2024-03-07T22:38:38.129Z,12.05
2024-03-07T22:41:07.783Z,11.23
2024-03-07T22:43:34.491Z,11.27
2024-03-07T22:46:00.973Z,11.32
2024-03-07T22:48:27.625Z,11.63
2024-03-07T22:50:54.164Z,11.88
2024-03-07T22:53:20.810Z,12.10
2024-03-07T22:55:47.965Z,12.25
2024-03-07T22:58:14.486Z,12.68
2024-03-07T23:00:45.447Z,11.85
2024-03-07T23:03:15.596Z,12.00
2024-03-07T23:05:42.478Z,10.87
2024-03-07T23:08:09.130Z,11.82
2024-03-07T23:10:35.701Z,11.30
2024-03-07T23:13:02.781Z,11.70
2024-03-07T23:15:29.885Z,11.38
2024-03-07T23:17:58.311Z,11.87
2024-03-07T23:20:27.315Z,11.43
2024-03-07T23:22:57.360Z,12.23
2024-03-07T23:25:25.124Z,11.25
2024-03-07T23:27:52.946Z,12.07
2024-03-07T23:30:22.561Z,9.93
2024-03-07T23:32:51.212Z,11.38
2024-03-07T23:35:18.652Z,10.95
2024-03-07T23:37:46.253Z,12.00
2024-03-07T23:40:14.569Z,12.65
2024-03-07T23:42:42.610Z,13.17
2024-03-07T23:45:10.640Z,11.68
2024-03-07T23:47:37.915Z,11.43
2024-03-07T23:50:05.437Z,11.43
2024-03-07T23:52:31.948Z,12.05
2024-03-07T23:54:58.473Z,11.43
2024-03-07T23:57:25.163Z,11.43
2024-03-07T23:59:51.781Z,11.30
